sensor_id;sensor_type;location;lat;lon;timestamp;P1;durP1;ratioP1;P2;durP2;ratioP2
25752;SDS011;13600;50.816;4.416;2022-12-07T00:03:31;40.75;;;22.25;;
25752;SDS011;13600;50.816;4.416;2022-12-07T00:05:57;35.38;;;21.60;;
25752;SDS011;13600;50.816;4.416;2022-12-07T00:08:24;30.30;;;20.05;;
25752;SDS011;13600;50.816;4.416;2022-12-07T00:10:50;31.92;;;21.10;;
25752;SDS011;13600;50.816;4.416;2022-12-07T00:13:16;37.30;;;21.55;;
25752;SDS011;13600;50.816;4.416;2022-12-07T00:15:41;32.67;;;21.42;;
25752;SDS011;13600;50.816;4.416;2022-12-07T00:18:08;32.78;;;20.98;;
25752;SDS011;13600;50.816;4.416;2022-12-07T00:20:34;35.58;;;21.83;;
25752;SDS011;13600;50.816;4.416;2022-12-07T00:22:59;36.88;;;23.30;;
25752;SDS011;13600;50.816;4.416;2022-12-07T00:25:25;38.35;;;23.33;;
25752;SDS011;13600;50.816;4.416;2022-12-07T00:27:54;41.15;;;23.75;;
25752;SDS011;13600;50.816;4.416;2022-12-07T00:30:22;41.28;;;25.02;;
25752;SDS011;13600;50.816;4.416;2022-12-07T00:32:48;42.00;;;24.50;;
25752;SDS011;13600;50.816;4.416;2022-12-07T00:35:14;45.67;;;24.30;;
25752;SDS011;13600;50.816;4.416;2022-12-07T00:37:40;43.85;;;25.30;;
25752;SDS011;13600;50.816;4.416;2022-12-07T00:40:06;44.33;;;27.60;;
25752;SDS011;13600;50.816;4.416;2022-12-07T00:42:32;44.67;;;26.13;;
25752;SDS011;13600;50.816;4.416;2022-12-07T00:44:57;44.25;;;25.50;;
25752;SDS011;13600;50.816;4.416;2022-12-07T00:47:23;43.00;;;26.38;;
25752;SDS011;13600;50.816;4.416;2022-12-07T00:49:49;49.80;;;28.38;;
25752;SDS011;13600;50.816;4.416;2022-12-07T00:52:14;44.65;;;26.50;;
25752;SDS011;13600;50.816;4.416;2022-12-07T00:54:40;50.22;;;27.80;;
25752;SDS011;13600;50.816;4.416;2022-12-07T00:57:06;45.30;;;26.80;;
25752;SDS011;13600;50.816;4.416;2022-12-07T00:59:31;48.78;;;27.58;;
25752;SDS011;13600;50.816;4.416;2022-12-07T01:01:57;44.72;;;27.23;;
25752;SDS011;13600;50.816;4.416;2022-12-07T01:04:23;44.38;;;27.42;;
25752;SDS011;13600;50.816;4.416;2022-12-07T01:06:48;46.60;;;26.02;;
25752;SDS011;13600;50.816;4.416;2022-12-07T01:09:14;43.20;;;26.60;;
25752;SDS011;13600;50.816;4.416;2022-12-07T01:11:39;41.58;;;25.20;;
25752;SDS011;13600;50.816;4.416;2022-12-07T01:14:05;46.60;;;25.40;;
25752;SDS011;13600;50.816;4.416;2022-12-07T01:16:31;37.60;;;24.20;;
25752;SDS011;13600;50.816;4.416;2022-12-07T01:18:58;41.35;;;23.02;;
25752;SDS011;13600;50.816;4.416;2022-12-07T01:21:25;44.22;;;25.58;;
25752;SDS011;13600;50.816;4.416;2022-12-07T01:23:53;40.88;;;25.05;;
25752;SDS011;13600;50.816;4.416;2022-12-07T01:26:21;43.42;;;24.10;;
25752;SDS011;13600;50.816;4.416;2022-12-07T01:28:48;43.53;;;25.85;;
25752;SDS011;13600;50.816;4.416;2022-12-07T01:31:17;42.75;;;24.58;;
25752;SDS011;13600;50.816;4.416;2022-12-07T01:33:47;39.78;;;23.23;;
25752;SDS011;13600;50.816;4.416;2022-12-07T01:36:16;35.90;;;22.55;;
25752;SDS011;13600;50.816;4.416;2022-12-07T01:38:47;39.28;;;23.58;;
25752;SDS011;13600;50.816;4.416;2022-12-07T01:41:16;39.50;;;23.10;;
25752;SDS011;13600;50.816;4.416;2022-12-07T01:44:28;39.40;;;23.55;;
25752;SDS011;13600;50.816;4.416;2022-12-07T01:46:37;41.80;;;23.90;;
25752;SDS011;13600;50.816;4.416;2022-12-07T01:49:07;45.60;;;24.65;;
25752;SDS011;13600;50.816;4.416;2022-12-07T01:51:35;42.28;;;24.48;;
25752;SDS011;13600;50.816;4.416;2022-12-07T01:54:03;41.35;;;24.92;;
25752;SDS011;13600;50.816;4.416;2022-12-07T01:56:29;42.88;;;25.63;;
25752;SDS011;13600;50.816;4.416;2022-12-07T01:58:55;42.05;;;24.30;;
25752;SDS011;13600;50.816;4.416;2022-12-07T02:01:25;36.85;;;23.52;;
25752;SDS011;13600;50.816;4.416;2022-12-07T02:03:50;42.75;;;25.52;;
25752;SDS011;13600;50.816;4.416;2022-12-07T02:06:19;38.42;;;23.73;;
25752;SDS011;13600;50.816;4.416;2022-12-07T02:08:49;42.47;;;23.52;;
25752;SDS011;13600;50.816;4.416;2022-12-07T02:11:14;40.10;;;23.63;;
25752;SDS011;13600;50.816;4.416;2022-12-07T02:13:41;38.42;;;23.40;;
25752;SDS011;13600;50.816;4.416;2022-12-07T02:27:17;39.25;;;23.17;;
25752;SDS011;13600;50.816;4.416;2022-12-07T02:30:15;36.13;;;22.27;;
25752;SDS011;13600;50.816;4.416;2022-12-07T02:40:50;34.80;;;21.75;;
25752;SDS011;13600;50.816;4.416;2022-12-07T02:43:28;33.65;;;20.75;;
25752;SDS011;13600;50.816;4.416;2022-12-07T02:45:58;35.55;;;20.70;;
25752;SDS011;13600;50.816;4.416;2022-12-07T02:48:31;32.53;;;18.75;;
25752;SDS011;13600;50.816;4.416;2022-12-07T02:51:00;29.13;;;18.70;;
25752;SDS011;13600;50.816;4.416;2022-12-07T02:53:33;27.88;;;18.85;;
25752;SDS011;13600;50.816;4.416;2022-12-07T02:56:07;26.77;;;19.08;;
25752;SDS011;13600;50.816;4.416;2022-12-07T03:01:58;28.88;;;18.88;;
25752;SDS011;13600;50.816;4.416;2022-12-07T03:16:27;30.50;;;17.92;;
25752;SDS011;13600;50.816;4.416;2022-12-07T03:19:07;33.35;;;18.30;;
25752;SDS011;13600;50.816;4.416;2022-12-07T03:21:40;29.50;;;18.40;;
25752;SDS011;13600;50.816;4.416;2022-12-07T03:24:24;33.73;;;19.17;;
25752;SDS011;13600;50.816;4.416;2022-12-07T03:26:55;28.35;;;18.40;;
25752;SDS011;13600;50.816;4.416;2022-12-07T03:29:34;32.20;;;19.40;;
25752;SDS011;13600;50.816;4.416;2022-12-07T03:32:16;35.83;;;19.73;;
25752;SDS011;13600;50.816;4.416;2022-12-07T03:34:56;30.88;;;20.67;;
25752;SDS011;13600;50.816;4.416;2022-12-07T03:40:22;33.85;;;20.98;;
25752;SDS011;13600;50.816;4.416;2022-12-07T03:43:04;34.58;;;21.67;;
25752;SDS011;13600;50.816;4.416;2022-12-07T03:45:37;34.83;;;20.80;;
25752;SDS011;13600;50.816;4.416;2022-12-07T03:48:22;33.00;;;20.52;;
25752;SDS011;13600;50.816;4.416;2022-12-07T03:53:54;33.80;;;21.33;;
25752;SDS011;13600;50.816;4.416;2022-12-07T03:56:25;35.75;;;20.08;;
25752;SDS011;13600;50.816;4.416;2022-12-07T03:58:52;36.15;;;21.48;;
25752;SDS011;13600;50.816;4.416;2022-12-07T04:01:18;37.10;;;20.67;;
25752;SDS011;13600;50.816;4.416;2022-12-07T04:03:44;34.78;;;20.30;;
25752;SDS011;13600;50.816;4.416;2022-12-07T04:06:10;39.08;;;20.67;;
25752;SDS011;13600;50.816;4.416;2022-12-07T04:08:36;30.85;;;19.50;;
25752;SDS011;13600;50.816;4.416;2022-12-07T04:11:02;29.70;;;19.35;;
25752;SDS011;13600;50.816;4.416;2022-12-07T04:13:28;30.83;;;20.63;;
25752;SDS011;13600;50.816;4.416;2022-12-07T04:15:53;36.72;;;19.98;;
25752;SDS011;13600;50.816;4.416;2022-12-07T04:18:19;38.05;;;20.27;;
25752;SDS011;13600;50.816;4.416;2022-12-07T04:20:45;32.55;;;20.20;;
25752;SDS011;13600;50.816;4.416;2022-12-07T04:23:11;35.85;;;20.00;;
25752;SDS011;13600;50.816;4.416;2022-12-07T04:25:37;33.45;;;21.02;;
25752;SDS011;13600;50.816;4.416;2022-12-07T04:28:02;35.15;;;20.75;;
25752;SDS011;13600;50.816;4.416;2022-12-07T04:30:28;34.50;;;21.38;;
25752;SDS011;13600;50.816;4.416;2022-12-07T04:32:55;36.88;;;21.38;;
25752;SDS011;13600;50.816;4.416;2022-12-07T04:35:20;38.83;;;22.20;;
25752;SDS011;13600;50.816;4.416;2022-12-07T04:37:46;39.78;;;23.65;;
25752;SDS011;13600;50.816;4.416;2022-12-07T04:40:12;41.20;;;23.05;;
25752;SDS011;13600;50.816;4.416;2022-12-07T04:42:39;38.95;;;22.23;;
25752;SDS011;13600;50.816;4.416;2022-12-07T04:45:05;41.83;;;23.75;;
25752;SDS011;13600;50.816;4.416;2022-12-07T04:47:31;39.38;;;24.52;;
25752;SDS011;13600;50.816;4.416;2022-12-07T04:49:57;40.97;;;23.50;;
25752;SDS011;13600;50.816;4.416;2022-12-07T04:52:23;38.20;;;24.60;;
25752;SDS011;13600;50.816;4.416;2022-12-07T04:54:48;40.30;;;25.42;;
25752;SDS011;13600;50.816;4.416;2022-12-07T04:57:14;41.30;;;24.77;;
25752;SDS011;13600;50.816;4.416;2022-12-07T04:59:40;43.80;;;24.08;;
25752;SDS011;13600;50.816;4.416;2022-12-07T05:02:05;43.22;;;25.05;;
25752;SDS011;13600;50.816;4.416;2022-12-07T05:04:31;42.38;;;24.38;;
25752;SDS011;13600;50.816;4.416;2022-12-07T05:06:57;43.85;;;23.58;;
25752;SDS011;13600;50.816;4.416;2022-12-07T05:09:22;48.67;;;24.70;;
25752;SDS011;13600;50.816;4.416;2022-12-07T05:11:48;40.88;;;24.48;;
25752;SDS011;13600;50.816;4.416;2022-12-07T05:14:18;37.63;;;23.55;;
25752;SDS011;13600;50.816;4.416;2022-12-07T05:16:45;38.72;;;22.85;;
25752;SDS011;13600;50.816;4.416;2022-12-07T05:19:12;38.15;;;23.20;;
25752;SDS011;13600;50.816;4.416;2022-12-07T05:21:38;46.10;;;23.70;;
25752;SDS011;13600;50.816;4.416;2022-12-07T05:24:05;37.53;;;22.48;;
25752;SDS011;13600;50.816;4.416;2022-12-07T05:26:32;34.70;;;22.63;;
25752;SDS011;13600;50.816;4.416;2022-12-07T05:28:57;36.35;;;20.83;;
25752;SDS011;13600;50.816;4.416;2022-12-07T05:31:24;36.45;;;21.65;;
25752;SDS011;13600;50.816;4.416;2022-12-07T05:33:50;33.38;;;20.45;;
25752;SDS011;13600;50.816;4.416;2022-12-07T05:36:16;38.90;;;20.20;;
25752;SDS011;13600;50.816;4.416;2022-12-07T05:38:41;34.50;;;19.70;;
25752;SDS011;13600;50.816;4.416;2022-12-07T05:41:08;35.22;;;19.85;;
25752;SDS011;13600;50.816;4.416;2022-12-07T05:43:57;32.72;;;19.73;;
25752;SDS011;13600;50.816;4.416;2022-12-07T05:46:22;35.10;;;19.88;;
25752;SDS011;13600;50.816;4.416;2022-12-07T05:48:48;32.30;;;18.92;;
25752;SDS011;13600;50.816;4.416;2022-12-07T05:51:13;31.02;;;19.00;;
25752;SDS011;13600;50.816;4.416;2022-12-07T05:53:39;32.50;;;18.50;;
25752;SDS011;13600;50.816;4.416;2022-12-07T05:56:05;36.90;;;19.88;;
25752;SDS011;13600;50.816;4.416;2022-12-07T05:58:31;31.70;;;19.70;;
25752;SDS011;13600;50.816;4.416;2022-12-07T06:03:40;33.72;;;18.63;;
25752;SDS011;13600;50.816;4.416;2022-12-07T06:06:06;30.70;;;19.30;;
25752;SDS011;13600;50.816;4.416;2022-12-07T06:08:32;31.10;;;18.00;;
25752;SDS011;13600;50.816;4.416;2022-12-07T06:10:57;33.22;;;19.98;;
25752;SDS011;13600;50.816;4.416;2022-12-07T06:13:42;32.70;;;19.02;;
25752;SDS011;13600;50.816;4.416;2022-12-07T06:16:07;32.10;;;18.85;;
25752;SDS011;13600;50.816;4.416;2022-12-07T06:18:33;32.70;;;17.85;;
25752;SDS011;13600;50.816;4.416;2022-12-07T06:20:58;28.23;;;17.77;;
25752;SDS011;13600;50.816;4.416;2022-12-07T06:23:24;31.08;;;17.58;;
25752;SDS011;13600;50.816;4.416;2022-12-07T06:25:50;25.63;;;16.30;;
25752;SDS011;13600;50.816;4.416;2022-12-07T06:28:15;33.85;;;17.33;;
25752;SDS011;13600;50.816;4.416;2022-12-07T06:30:41;35.72;;;20.42;;
25752;SDS011;13600;50.816;4.416;2022-12-07T06:33:07;27.42;;;17.58;;
25752;SDS011;13600;50.816;4.416;2022-12-07T06:35:33;26.88;;;16.13;;
25752;SDS011;13600;50.816;4.416;2022-12-07T06:37:59;30.40;;;16.50;;
25752;SDS011;13600;50.816;4.416;2022-12-07T06:40:24;34.33;;;17.55;;
25752;SDS011;13600;50.816;4.416;2022-12-07T06:42:50;29.02;;;17.65;;
25752;SDS011;13600;50.816;4.416;2022-12-07T06:45:16;32.03;;;17.20;;
25752;SDS011;13600;50.816;4.416;2022-12-07T06:47:41;27.95;;;17.33;;
25752;SDS011;13600;50.816;4.416;2022-12-07T06:50:07;33.42;;;18.55;;
25752;SDS011;13600;50.816;4.416;2022-12-07T06:52:33;29.83;;;17.65;;
25752;SDS011;13600;50.816;4.416;2022-12-07T06:54:59;33.67;;;18.33;;
25752;SDS011;13600;50.816;4.416;2022-12-07T06:57:26;29.40;;;17.00;;
25752;SDS011;13600;50.816;4.416;2022-12-07T06:59:51;25.98;;;16.92;;
25752;SDS011;13600;50.816;4.416;2022-12-07T07:02:17;32.90;;;17.98;;
25752;SDS011;13600;50.816;4.416;2022-12-07T07:04:43;26.88;;;17.60;;
25752;SDS011;13600;50.816;4.416;2022-12-07T07:07:08;30.23;;;18.35;;
25752;SDS011;13600;50.816;4.416;2022-12-07T07:09:34;28.98;;;17.00;;
25752;SDS011;13600;50.816;4.416;2022-12-07T07:12:00;24.80;;;16.27;;
25752;SDS011;13600;50.816;4.416;2022-12-07T07:14:26;28.48;;;17.00;;
25752;SDS011;13600;50.816;4.416;2022-12-07T07:16:51;27.90;;;17.73;;
25752;SDS011;13600;50.816;4.416;2022-12-07T07:19:17;30.38;;;19.23;;
25752;SDS011;13600;50.816;4.416;2022-12-07T07:21:43;31.00;;;18.00;;
25752;SDS011;13600;50.816;4.416;2022-12-07T07:24:09;35.65;;;18.95;;
25752;SDS011;13600;50.816;4.416;2022-12-07T07:26:36;30.45;;;16.98;;
25752;SDS011;13600;50.816;4.416;2022-12-07T07:29:01;30.13;;;18.20;;
25752;SDS011;13600;50.816;4.416;2022-12-07T07:31:27;37.30;;;19.05;;
25752;SDS011;13600;50.816;4.416;2022-12-07T07:33:52;37.30;;;20.27;;
25752;SDS011;13600;50.816;4.416;2022-12-07T07:36:18;28.75;;;17.85;;
25752;SDS011;13600;50.816;4.416;2022-12-07T07:38:45;30.92;;;18.38;;
25752;SDS011;13600;50.816;4.416;2022-12-07T07:41:11;35.25;;;19.65;;
25752;SDS011;13600;50.816;4.416;2022-12-07T07:43:37;31.17;;;18.60;;
25752;SDS011;13600;50.816;4.416;2022-12-07T07:46:03;29.02;;;16.83;;
25752;SDS011;13600;50.816;4.416;2022-12-07T07:48:28;30.13;;;16.38;;
25752;SDS011;13600;50.816;4.416;2022-12-07T07:50:54;33.60;;;16.20;;
25752;SDS011;13600;50.816;4.416;2022-12-07T07:53:20;33.03;;;16.30;;
25752;SDS011;13600;50.816;4.416;2022-12-07T07:55:52;31.02;;;15.88;;
25752;SDS011;13600;50.816;4.416;2022-12-07T07:58:18;31.35;;;16.42;;
25752;SDS011;13600;50.816;4.416;2022-12-07T08:00:45;29.52;;;17.02;;
25752;SDS011;13600;50.816;4.416;2022-12-07T08:03:10;26.98;;;16.25;;
25752;SDS011;13600;50.816;4.416;2022-12-07T08:05:37;29.17;;;16.75;;
25752;SDS011;13600;50.816;4.416;2022-12-07T08:08:03;27.77;;;16.67;;
25752;SDS011;13600;50.816;4.416;2022-12-07T08:10:29;29.75;;;16.25;;
25752;SDS011;13600;50.816;4.416;2022-12-07T08:12:57;32.20;;;16.27;;
25752;SDS011;13600;50.816;4.416;2022-12-07T08:15:42;31.98;;;17.27;;
25752;SDS011;13600;50.816;4.416;2022-12-07T08:18:11;32.75;;;17.52;;
25752;SDS011;13600;50.816;4.416;2022-12-07T08:20:37;29.55;;;16.55;;
25752;SDS011;13600;50.816;4.416;2022-12-07T08:23:04;30.83;;;17.88;;
25752;SDS011;13600;50.816;4.416;2022-12-07T08:25:31;32.65;;;19.00;;
25752;SDS011;13600;50.816;4.416;2022-12-07T08:27:57;30.95;;;19.02;;
25752;SDS011;13600;50.816;4.416;2022-12-07T08:30:23;36.95;;;19.85;;
25752;SDS011;13600;50.816;4.416;2022-12-07T08:32:49;33.20;;;19.27;;
25752;SDS011;13600;50.816;4.416;2022-12-07T08:35:15;35.10;;;19.75;;
25752;SDS011;13600;50.816;4.416;2022-12-07T08:37:41;37.05;;;21.17;;
25752;SDS011;13600;50.816;4.416;2022-12-07T08:40:08;33.25;;;21.55;;
25752;SDS011;13600;50.816;4.416;2022-12-07T08:42:35;34.08;;;19.58;;
25752;SDS011;13600;50.816;4.416;2022-12-07T08:45:06;34.00;;;20.65;;
25752;SDS011;13600;50.816;4.416;2022-12-07T08:47:33;39.83;;;21.20;;
25752;SDS011;13600;50.816;4.416;2022-12-07T08:50:02;35.70;;;20.35;;
25752;SDS011;13600;50.816;4.416;2022-12-07T08:52:32;29.73;;;19.17;;
25752;SDS011;13600;50.816;4.416;2022-12-07T08:54:58;36.97;;;19.63;;
25752;SDS011;13600;50.816;4.416;2022-12-07T08:57:26;31.27;;;18.33;;
25752;SDS011;13600;50.816;4.416;2022-12-07T08:59:53;28.52;;;16.48;;
25752;SDS011;13600;50.816;4.416;2022-12-07T09:02:19;26.10;;;15.68;;
25752;SDS011;13600;50.816;4.416;2022-12-07T09:04:45;30.05;;;14.80;;
25752;SDS011;13600;50.816;4.416;2022-12-07T09:07:10;22.38;;;13.60;;
25752;SDS011;13600;50.816;4.416;2022-12-07T09:09:36;22.10;;;14.45;;
25752;SDS011;13600;50.816;4.416;2022-12-07T09:12:02;22.83;;;13.00;;
25752;SDS011;13600;50.816;4.416;2022-12-07T09:14:28;25.48;;;13.02;;
25752;SDS011;13600;50.816;4.416;2022-12-07T09:16:54;20.45;;;11.90;;
25752;SDS011;13600;50.816;4.416;2022-12-07T09:19:19;23.67;;;12.73;;
25752;SDS011;13600;50.816;4.416;2022-12-07T09:21:45;25.70;;;11.98;;
25752;SDS011;13600;50.816;4.416;2022-12-07T09:24:11;22.10;;;11.50;;
25752;SDS011;13600;50.816;4.416;2022-12-07T09:26:38;25.80;;;10.90;;
25752;SDS011;13600;50.816;4.416;2022-12-07T09:29:05;24.00;;;11.70;;
25752;SDS011;13600;50.816;4.416;2022-12-07T09:31:32;18.25;;;10.57;;
25752;SDS011;13600;50.816;4.416;2022-12-07T09:33:59;20.55;;;11.43;;
25752;SDS011;13600;50.816;4.416;2022-12-07T09:36:27;22.77;;;11.70;;
25752;SDS011;13600;50.816;4.416;2022-12-07T09:38:54;19.65;;;10.95;;
25752;SDS011;13600;50.816;4.416;2022-12-07T09:41:21;17.25;;;10.77;;
25752;SDS011;13600;50.816;4.416;2022-12-07T09:43:48;26.83;;;10.52;;
25752;SDS011;13600;50.816;4.416;2022-12-07T09:46:16;17.48;;;10.05;;
25752;SDS011;13600;50.816;4.416;2022-12-07T09:48:44;16.38;;;9.35;;
25752;SDS011;13600;50.816;4.416;2022-12-07T09:51:19;19.17;;;9.63;;
25752;SDS011;13600;50.816;4.416;2022-12-07T09:53:49;17.15;;;9.70;;
25752;SDS011;13600;50.816;4.416;2022-12-07T09:56:17;17.95;;;9.48;;
25752;SDS011;13600;50.816;4.416;2022-12-07T09:58:44;17.48;;;9.18;;
25752;SDS011;13600;50.816;4.416;2022-12-07T10:01:12;21.98;;;9.43;;
25752;SDS011;13600;50.816;4.416;2022-12-07T10:03:52;22.65;;;9.95;;
25752;SDS011;13600;50.816;4.416;2022-12-07T10:06:35;22.58;;;9.25;;
25752;SDS011;13600;50.816;4.416;2022-12-07T10:09:00;18.70;;;10.50;;
25752;SDS011;13600;50.816;4.416;2022-12-07T10:11:33;18.30;;;9.60;;
25752;SDS011;13600;50.816;4.416;2022-12-07T10:14:10;19.38;;;10.00;;
25752;SDS011;13600;50.816;4.416;2022-12-07T10:16:38;25.48;;;10.15;;
25752;SDS011;13600;50.816;4.416;2022-12-07T10:19:20;21.63;;;11.68;;
25752;SDS011;13600;50.816;4.416;2022-12-07T10:22:03;19.55;;;9.48;;
25752;SDS011;13600;50.816;4.416;2022-12-07T10:24:35;20.70;;;8.77;;
25752;SDS011;13600;50.816;4.416;2022-12-07T10:27:04;18.42;;;9.95;;
25752;SDS011;13600;50.816;4.416;2022-12-07T10:29:34;17.38;;;8.80;;
25752;SDS011;13600;50.816;4.416;2022-12-07T10:32:26;18.65;;;9.27;;
25752;SDS011;13600;50.816;4.416;2022-12-07T10:35:36;21.52;;;10.60;;
25752;SDS011;13600;50.816;4.416;2022-12-07T10:37:48;16.85;;;10.30;;
25752;SDS011;13600;50.816;4.416;2022-12-07T10:40:26;26.98;;;10.30;;
25752;SDS011;13600;50.816;4.416;2022-12-07T10:43:30;14.63;;;9.38;;
25752;SDS011;13600;50.816;4.416;2022-12-07T10:51:43;19.17;;;9.10;;
25752;SDS011;13600;50.816;4.416;2022-12-07T10:54:40;16.23;;;8.90;;
25752;SDS011;13600;50.816;4.416;2022-12-07T10:57:22;22.30;;;9.63;;
25752;SDS011;13600;50.816;4.416;2022-12-07T11:02:51;16.52;;;8.00;;
25752;SDS011;13600;50.816;4.416;2022-12-07T11:16:44;16.88;;;6.47;;
25752;SDS011;13600;50.816;4.416;2022-12-07T11:21:58;17.00;;;6.80;;
25752;SDS011;13600;50.816;4.416;2022-12-07T11:24:32;16.73;;;6.72;;
25752;SDS011;13600;50.816;4.416;2022-12-07T11:30:23;15.85;;;5.82;;
25752;SDS011;13600;50.816;4.416;2022-12-07T11:38:41;18.23;;;7.10;;
25752;SDS011;13600;50.816;4.416;2022-12-07T11:41:17;13.15;;;6.93;;
25752;SDS011;13600;50.816;4.416;2022-12-07T11:46:20;15.93;;;7.35;;
25752;SDS011;13600;50.816;4.416;2022-12-07T11:51:26;14.38;;;6.65;;
25752;SDS011;13600;50.816;4.416;2022-12-07T11:53:55;15.07;;;6.43;;
25752;SDS011;13600;50.816;4.416;2022-12-07T11:56:42;15.63;;;5.53;;
25752;SDS011;13600;50.816;4.416;2022-12-07T11:59:53;16.13;;;5.57;;
25752;SDS011;13600;50.816;4.416;2022-12-07T12:02:19;21.10;;;5.53;;
25752;SDS011;13600;50.816;4.416;2022-12-07T12:05:13;13.43;;;6.22;;
25752;SDS011;13600;50.816;4.416;2022-12-07T12:07:43;17.27;;;5.70;;
25752;SDS011;13600;50.816;4.416;2022-12-07T12:15:49;14.13;;;5.20;;
25752;SDS011;13600;50.816;4.416;2022-12-07T12:21:14;14.23;;;4.18;;
25752;SDS011;13600;50.816;4.416;2022-12-07T12:23:43;11.40;;;3.60;;
25752;SDS011;13600;50.816;4.416;2022-12-07T12:26:19;11.57;;;4.07;;
25752;SDS011;13600;50.816;4.416;2022-12-07T12:29:00;13.00;;;3.22;;
25752;SDS011;13600;50.816;4.416;2022-12-07T12:34:03;7.60;;;3.00;;
25752;SDS011;13600;50.816;4.416;2022-12-07T12:36:49;7.93;;;2.83;;
25752;SDS011;13600;50.816;4.416;2022-12-07T12:39:18;9.55;;;3.10;;
25752;SDS011;13600;50.816;4.416;2022-12-07T12:49:34;10.00;;;2.67;;
25752;SDS011;13600;50.816;4.416;2022-12-07T12:55:11;10.23;;;2.90;;
25752;SDS011;13600;50.816;4.416;2022-12-07T12:57:30;10.20;;;2.80;;
25752;SDS011;13600;50.816;4.416;2022-12-07T12:59:57;10.57;;;3.13;;
25752;SDS011;13600;50.816;4.416;2022-12-07T13:02:27;9.30;;;2.50;;
25752;SDS011;13600;50.816;4.416;2022-12-07T13:05:00;5.63;;;3.03;;
25752;SDS011;13600;50.816;4.416;2022-12-07T13:12:59;10.70;;;2.10;;
25752;SDS011;13600;50.816;4.416;2022-12-07T13:15:32;11.00;;;2.50;;
25752;SDS011;13600;50.816;4.416;2022-12-07T13:17:59;10.57;;;4.90;;
25752;SDS011;13600;50.816;4.416;2022-12-07T13:23:25;9.13;;;2.35;;
25752;SDS011;13600;50.816;4.416;2022-12-07T13:26:21;8.88;;;2.60;;
25752;SDS011;13600;50.816;4.416;2022-12-07T13:37:08;11.57;;;2.70;;
25752;SDS011;13600;50.816;4.416;2022-12-07T13:39:45;10.38;;;3.13;;
25752;SDS011;13600;50.816;4.416;2022-12-07T13:42:37;10.52;;;3.00;;
25752;SDS011;13600;50.816;4.416;2022-12-07T13:50:55;8.88;;;3.20;;
25752;SDS011;13600;50.816;4.416;2022-12-07T13:53:22;10.52;;;3.40;;
25752;SDS011;13600;50.816;4.416;2022-12-07T13:55:48;14.75;;;3.50;;
25752;SDS011;13600;50.816;4.416;2022-12-07T13:58:15;9.15;;;3.22;;
25752;SDS011;13600;50.816;4.416;2022-12-07T14:00:41;9.80;;;4.13;;
25752;SDS011;13600;50.816;4.416;2022-12-07T14:05:36;12.43;;;3.58;;
25752;SDS011;13600;50.816;4.416;2022-12-07T14:08:22;9.20;;;3.85;;
25752;SDS011;13600;50.816;4.416;2022-12-07T14:15:59;11.23;;;4.22;;
25752;SDS011;13600;50.816;4.416;2022-12-07T14:18:27;12.55;;;3.47;;
25752;SDS011;13600;50.816;4.416;2022-12-07T14:21:23;7.78;;;2.90;;
25752;SDS011;13600;50.816;4.416;2022-12-07T14:26:48;9.88;;;2.65;;
25752;SDS011;13600;50.816;4.416;2022-12-07T14:31:53;8.85;;;2.65;;
25752;SDS011;13600;50.816;4.416;2022-12-07T14:34:20;6.88;;;2.38;;
25752;SDS011;13600;50.816;4.416;2022-12-07T14:36:46;6.88;;;2.38;;
25752;SDS011;13600;50.816;4.416;2022-12-07T14:39:12;6.30;;;2.60;;
25752;SDS011;13600;50.816;4.416;2022-12-07T14:41:38;10.20;;;3.13;;
25752;SDS011;13600;50.816;4.416;2022-12-07T14:44:16;7.60;;;2.83;;
25752;SDS011;13600;50.816;4.416;2022-12-07T14:46:42;6.07;;;2.80;;
25752;SDS011;13600;50.816;4.416;2022-12-07T14:49:08;10.15;;;3.38;;
25752;SDS011;13600;50.816;4.416;2022-12-07T14:51:34;9.30;;;3.15;;
25752;SDS011;13600;50.816;4.416;2022-12-07T14:54:02;11.60;;;3.95;;
25752;SDS011;13600;50.816;4.416;2022-12-07T14:56:30;7.00;;;2.10;;
25752;SDS011;13600;50.816;4.416;2022-12-07T14:58:56;9.50;;;2.15;;
25752;SDS011;13600;50.816;4.416;2022-12-07T15:01:21;7.18;;;3.10;;
25752;SDS011;13600;50.816;4.416;2022-12-07T15:03:47;8.98;;;2.80;;
25752;SDS011;13600;50.816;4.416;2022-12-07T15:06:13;7.68;;;2.75;;
25752;SDS011;13600;50.816;4.416;2022-12-07T15:08:40;5.88;;;2.60;;
25752;SDS011;13600;50.816;4.416;2022-12-07T15:11:08;9.00;;;3.10;;
25752;SDS011;13600;50.816;4.416;2022-12-07T15:13:41;6.25;;;2.13;;
25752;SDS011;13600;50.816;4.416;2022-12-07T15:18:50;5.90;;;2.42;;
25752;SDS011;13600;50.816;4.416;2022-12-07T15:21:16;13.95;;;5.15;;
25752;SDS011;13600;50.816;4.416;2022-12-07T15:23:42;10.27;;;4.70;;
25752;SDS011;13600;50.816;4.416;2022-12-07T15:26:12;11.52;;;5.55;;
25752;SDS011;13600;50.816;4.416;2022-12-07T15:28:40;7.88;;;3.58;;
25752;SDS011;13600;50.816;4.416;2022-12-07T15:31:15;9.25;;;3.05;;
25752;SDS011;13600;50.816;4.416;2022-12-07T15:33:42;10.00;;;2.90;;
25752;SDS011;13600;50.816;4.416;2022-12-07T15:36:09;9.63;;;3.88;;
25752;SDS011;13600;50.816;4.416;2022-12-07T15:38:43;8.45;;;3.38;;
25752;SDS011;13600;50.816;4.416;2022-12-07T15:41:09;7.72;;;3.25;;
25752;SDS011;13600;50.816;4.416;2022-12-07T15:43:35;10.93;;;3.47;;
25752;SDS011;13600;50.816;4.416;2022-12-07T15:46:19;8.32;;;3.00;;
25752;SDS011;13600;50.816;4.416;2022-12-07T15:48:45;9.45;;;4.25;;
25752;SDS011;13600;50.816;4.416;2022-12-07T15:51:12;11.75;;;3.58;;
25752;SDS011;13600;50.816;4.416;2022-12-07T15:53:38;14.15;;;6.20;;
25752;SDS011;13600;50.816;4.416;2022-12-07T15:56:07;11.02;;;5.13;;
25752;SDS011;13600;50.816;4.416;2022-12-07T15:58:33;28.70;;;12.48;;
25752;SDS011;13600;50.816;4.416;2022-12-07T16:00:59;31.15;;;12.68;;
25752;SDS011;13600;50.816;4.416;2022-12-07T16:03:29;26.65;;;13.95;;
25752;SDS011;13600;50.816;4.416;2022-12-07T16:05:54;13.02;;;5.88;;
25752;SDS011;13600;50.816;4.416;2022-12-07T16:08:20;14.63;;;4.90;;
25752;SDS011;13600;50.816;4.416;2022-12-07T16:10:45;26.75;;;9.98;;
25752;SDS011;13600;50.816;4.416;2022-12-07T16:13:11;20.02;;;7.93;;
25752;SDS011;13600;50.816;4.416;2022-12-07T16:15:41;10.18;;;4.45;;
25752;SDS011;13600;50.816;4.416;2022-12-07T16:18:07;26.38;;;9.02;;
25752;SDS011;13600;50.816;4.416;2022-12-07T16:20:32;22.23;;;8.18;;
25752;SDS011;13600;50.816;4.416;2022-12-07T16:22:58;15.20;;;6.95;;
25752;SDS011;13600;50.816;4.416;2022-12-07T16:25:24;23.75;;;10.02;;
25752;SDS011;13600;50.816;4.416;2022-12-07T16:27:53;15.40;;;8.32;;
25752;SDS011;13600;50.816;4.416;2022-12-07T16:30:18;13.77;;;7.18;;
25752;SDS011;13600;50.816;4.416;2022-12-07T16:32:44;19.25;;;7.50;;
25752;SDS011;13600;50.816;4.416;2022-12-07T16:35:11;11.98;;;7.45;;
25752;SDS011;13600;50.816;4.416;2022-12-07T16:37:37;12.27;;;6.43;;
25752;SDS011;13600;50.816;4.416;2022-12-07T16:40:03;14.63;;;7.68;;
25752;SDS011;13600;50.816;4.416;2022-12-07T16:42:33;10.88;;;7.00;;
25752;SDS011;13600;50.816;4.416;2022-12-07T16:45:00;16.73;;;9.15;;
25752;SDS011;13600;50.816;4.416;2022-12-07T16:47:26;18.35;;;8.82;;
25752;SDS011;13600;50.816;4.416;2022-12-07T16:49:51;12.55;;;7.10;;
25752;SDS011;13600;50.816;4.416;2022-12-07T16:52:17;15.27;;;8.10;;
25752;SDS011;13600;50.816;4.416;2022-12-07T16:54:44;13.38;;;7.32;;
25752;SDS011;13600;50.816;4.416;2022-12-07T16:57:09;16.13;;;7.63;;
25752;SDS011;13600;50.816;4.416;2022-12-07T16:59:35;15.43;;;8.35;;
25752;SDS011;13600;50.816;4.416;2022-12-07T17:02:01;14.48;;;6.90;;